sensor_id;sensor_type;location;lat;lon;timestamp;temperature;humidity
26081;DHT22;13991;51.174;4.438;2023-04-06T00:00:34;9.40;99.90
26081;DHT22;13991;51.174;4.438;2023-04-06T00:03:00;9.50;99.90
26081;DHT22;13991;51.174;4.438;2023-04-06T00:05:26;9.40;99.90
26081;DHT22;13991;51.174;4.438;2023-04-06T00:07:53;9.30;99.90
26081;DHT22;13991;51.174;4.438;2023-04-06T00:10:21;9.40;99.90
26081;DHT22;13991;51.174;4.438;2023-04-06T00:12:46;9.40;99.90
26081;DHT22;13991;51.174;4.438;2023-04-06T00:15:12;9.40;99.90
26081;DHT22;13991;51.174;4.438;2023-04-06T00:17:38;9.30;99.90
26081;DHT22;13991;51.174;4.438;2023-04-06T00:20:04;9.30;99.90
26081;DHT22;13991;51.174;4.438;2023-04-06T00:22:30;9.30;99.90
26081;DHT22;13991;51.174;4.438;2023-04-06T00:24:55;9.30;99.90
26081;DHT22;13991;51.174;4.438;2023-04-06T00:27:21;9.30;99.90
26081;DHT22;13991;51.174;4.438;2023-04-06T00:29:46;9.30;99.90
26081;DHT22;13991;51.174;4.438;2023-04-06T00:32:12;9.30;99.90
26081;DHT22;13991;51.174;4.438;2023-04-06T00:34:38;9.30;99.90
26081;DHT22;13991;51.174;4.438;2023-04-06T00:37:03;9.30;99.90
26081;DHT22;13991;51.174;4.438;2023-04-06T00:39:29;9.30;99.90
26081;DHT22;13991;51.174;4.438;2023-04-06T00:41:55;9.20;99.90
26081;DHT22;13991;51.174;4.438;2023-04-06T00:44:22;9.30;99.90
26081;DHT22;13991;51.174;4.438;2023-04-06T00:46:47;9.20;99.90
26081;DHT22;13991;51.174;4.438;2023-04-06T00:49:13;9.30;99.90
26081;DHT22;13991;51.174;4.438;2023-04-06T00:51:39;9.30;99.90
26081;DHT22;13991;51.174;4.438;2023-04-06T00:54:05;9.30;99.90
26081;DHT22;13991;51.174;4.438;2023-04-06T00:56:31;9.10;99.90
26081;DHT22;13991;51.174;4.438;2023-04-06T00:58:57;9.20;99.90
26081;DHT22;13991;51.174;4.438;2023-04-06T01:01:23;9.40;99.90
26081;DHT22;13991;51.174;4.438;2023-04-06T01:03:51;9.30;99.90
26081;DHT22;13991;51.174;4.438;2023-04-06T01:06:17;9.30;99.90
26081;DHT22;13991;51.174;4.438;2023-04-06T01:08:42;9.30;99.90
26081;DHT22;13991;51.174;4.438;2023-04-06T01:11:08;9.30;99.90
26081;DHT22;13991;51.174;4.438;2023-04-06T01:13:34;9.30;99.90
26081;DHT22;13991;51.174;4.438;2023-04-06T01:15:59;9.20;99.90
26081;DHT22;13991;51.174;4.438;2023-04-06T01:18:27;9.20;99.90
26081;DHT22;13991;51.174;4.438;2023-04-06T01:20:53;9.20;99.90
26081;DHT22;13991;51.174;4.438;2023-04-06T01:23:19;9.20;99.90
26081;DHT22;13991;51.174;4.438;2023-04-06T01:25:44;9.20;99.90
26081;DHT22;13991;51.174;4.438;2023-04-06T01:28:10;9.20;99.90
26081;DHT22;13991;51.174;4.438;2023-04-06T01:30:36;9.10;99.90
26081;DHT22;13991;51.174;4.438;2023-04-06T01:33:02;9.10;99.90
26081;DHT22;13991;51.174;4.438;2023-04-06T01:35:30;9.10;99.90
26081;DHT22;13991;51.174;4.438;2023-04-06T01:37:56;9.10;99.90
26081;DHT22;13991;51.174;4.438;2023-04-06T01:40:21;9.10;99.90
26081;DHT22;13991;51.174;4.438;2023-04-06T01:42:47;9.10;99.90
26081;DHT22;13991;51.174;4.438;2023-04-06T01:45:13;9.00;99.90
26081;DHT22;13991;51.174;4.438;2023-04-06T01:47:39;9.00;99.90
26081;DHT22;13991;51.174;4.438;2023-04-06T01:50:05;9.00;99.90
26081;DHT22;13991;51.174;4.438;2023-04-06T01:52:32;9.00;99.90
26081;DHT22;13991;51.174;4.438;2023-04-06T01:54:58;9.00;99.90
26081;DHT22;13991;51.174;4.438;2023-04-06T01:57:24;9.00;99.90
26081;DHT22;13991;51.174;4.438;2023-04-06T01:59:51;9.00;99.90
26081;DHT22;13991;51.174;4.438;2023-04-06T02:02:16;9.00;99.90
26081;DHT22;13991;51.174;4.438;2023-04-06T02:04:42;9.00;99.90
26081;DHT22;13991;51.174;4.438;2023-04-06T02:07:08;9.00;99.90
26081;DHT22;13991;51.174;4.438;2023-04-06T02:09:34;9.00;99.90
26081;DHT22;13991;51.174;4.438;2023-04-06T02:12:00;9.00;99.90
26081;DHT22;13991;51.174;4.438;2023-04-06T02:14:26;9.00;99.90
26081;DHT22;13991;51.174;4.438;2023-04-06T02:16:52;9.00;99.90
26081;DHT22;13991;51.174;4.438;2023-04-06T02:19:18;9.00;99.90
26081;DHT22;13991;51.174;4.438;2023-04-06T02:21:44;8.90;99.90
26081;DHT22;13991;51.174;4.438;2023-04-06T02:24:10;9.00;99.90
26081;DHT22;13991;51.174;4.438;2023-04-06T02:26:35;9.00;99.90
26081;DHT22;13991;51.174;4.438;2023-04-06T02:29:01;8.90;99.90
26081;DHT22;13991;51.174;4.438;2023-04-06T02:31:28;8.90;99.90
26081;DHT22;13991;51.174;4.438;2023-04-06T02:33:54;8.80;99.90
26081;DHT22;13991;51.174;4.438;2023-04-06T02:36:19;8.80;99.90
26081;DHT22;13991;51.174;4.438;2023-04-06T02:38:45;8.70;99.90
26081;DHT22;13991;51.174;4.438;2023-04-06T02:41:11;8.80;99.90
26081;DHT22;13991;51.174;4.438;2023-04-06T02:43:36;8.80;99.90
26081;DHT22;13991;51.174;4.438;2023-04-06T02:46:02;8.70;99.90
26081;DHT22;13991;51.174;4.438;2023-04-06T02:48:28;8.70;99.90
26081;DHT22;13991;51.174;4.438;2023-04-06T02:50:53;8.70;99.90
26081;DHT22;13991;51.174;4.438;2023-04-06T02:53:19;8.70;99.90
26081;DHT22;13991;51.174;4.438;2023-04-06T02:55:45;8.70;99.90
26081;DHT22;13991;51.174;4.438;2023-04-06T02:58:11;8.70;99.90
26081;DHT22;13991;51.174;4.438;2023-04-06T03:00:37;8.70;99.90
26081;DHT22;13991;51.174;4.438;2023-04-06T03:03:03;8.70;99.90
26081;DHT22;13991;51.174;4.438;2023-04-06T03:05:28;8.60;99.90
26081;DHT22;13991;51.174;4.438;2023-04-06T03:07:54;8.60;99.90
26081;DHT22;13991;51.174;4.438;2023-04-06T03:10:20;8.60;99.90
26081;DHT22;13991;51.174;4.438;2023-04-06T03:12:46;8.50;99.90
26081;DHT22;13991;51.174;4.438;2023-04-06T03:15:11;8.50;99.90
26081;DHT22;13991;51.174;4.438;2023-04-06T03:17:37;8.50;99.90
26081;DHT22;13991;51.174;4.438;2023-04-06T03:20:03;8.50;99.90
26081;DHT22;13991;51.174;4.438;2023-04-06T03:22:29;8.40;99.90
26081;DHT22;13991;51.174;4.438;2023-04-06T03:24:55;8.40;99.90
26081;DHT22;13991;51.174;4.438;2023-04-06T03:27:20;8.50;99.90
26081;DHT22;13991;51.174;4.438;2023-04-06T03:29:46;8.50;99.90
26081;DHT22;13991;51.174;4.438;2023-04-06T03:32:12;8.50;99.90
26081;DHT22;13991;51.174;4.438;2023-04-06T03:34:38;8.40;99.90
26081;DHT22;13991;51.174;4.438;2023-04-06T03:37:04;8.40;99.90
26081;DHT22;13991;51.174;4.438;2023-04-06T03:39:30;8.40;99.90
26081;DHT22;13991;51.174;4.438;2023-04-06T03:41:55;8.40;99.90
26081;DHT22;13991;51.174;4.438;2023-04-06T03:44:21;8.40;99.90
26081;DHT22;13991;51.174;4.438;2023-04-06T03:46:47;8.40;99.90
26081;DHT22;13991;51.174;4.438;2023-04-06T03:49:12;8.30;99.90
26081;DHT22;13991;51.174;4.438;2023-04-06T03:51:38;8.30;99.90
26081;DHT22;13991;51.174;4.438;2023-04-06T03:54:04;8.30;99.90
26081;DHT22;13991;51.174;4.438;2023-04-06T03:56:30;8.30;99.90
26081;DHT22;13991;51.174;4.438;2023-04-06T03:58:55;8.20;99.90
26081;DHT22;13991;51.174;4.438;2023-04-06T04:01:21;8.20;99.90
26081;DHT22;13991;51.174;4.438;2023-04-06T04:03:47;8.20;99.90
26081;DHT22;13991;51.174;4.438;2023-04-06T04:06:13;8.20;99.90
26081;DHT22;13991;51.174;4.438;2023-04-06T04:08:38;8.20;99.90
26081;DHT22;13991;51.174;4.438;2023-04-06T04:11:04;8.20;99.90
26081;DHT22;13991;51.174;4.438;2023-04-06T04:13:30;8.30;99.90
26081;DHT22;13991;51.174;4.438;2023-04-06T04:15:55;8.20;99.90
26081;DHT22;13991;51.174;4.438;2023-04-06T04:18:21;8.30;99.90
26081;DHT22;13991;51.174;4.438;2023-04-06T04:20:47;8.30;99.90
26081;DHT22;13991;51.174;4.438;2023-04-06T04:23:13;8.30;99.90
26081;DHT22;13991;51.174;4.438;2023-04-06T04:25:38;8.30;99.90
26081;DHT22;13991;51.174;4.438;2023-04-06T04:28:04;8.30;99.90
26081;DHT22;13991;51.174;4.438;2023-04-06T04:30:30;8.30;99.90
26081;DHT22;13991;51.174;4.438;2023-04-06T04:32:56;8.30;99.90
26081;DHT22;13991;51.174;4.438;2023-04-06T04:35:21;8.40;99.90
26081;DHT22;13991;51.174;4.438;2023-04-06T04:37:47;8.50;99.90
26081;DHT22;13991;51.174;4.438;2023-04-06T04:40:13;8.50;99.90
26081;DHT22;13991;51.174;4.438;2023-04-06T04:42:39;8.60;99.90
26081;DHT22;13991;51.174;4.438;2023-04-06T04:45:05;8.60;99.90
26081;DHT22;13991;51.174;4.438;2023-04-06T04:47:31;8.70;99.90
26081;DHT22;13991;51.174;4.438;2023-04-06T04:49:57;8.70;99.90
26081;DHT22;13991;51.174;4.438;2023-04-06T04:52:22;8.70;99.90
26081;DHT22;13991;51.174;4.438;2023-04-06T04:54:48;8.70;99.90
26081;DHT22;13991;51.174;4.438;2023-04-06T04:57:14;8.80;99.90
26081;DHT22;13991;51.174;4.438;2023-04-06T04:59:39;8.80;99.90
26081;DHT22;13991;51.174;4.438;2023-04-06T05:02:05;8.80;99.90
26081;DHT22;13991;51.174;4.438;2023-04-06T05:04:31;8.80;99.90
26081;DHT22;13991;51.174;4.438;2023-04-06T05:07:06;8.80;99.90
26081;DHT22;13991;51.174;4.438;2023-04-06T05:09:32;8.80;99.90
26081;DHT22;13991;51.174;4.438;2023-04-06T05:11:59;8.80;99.90
26081;DHT22;13991;51.174;4.438;2023-04-06T05:14:26;8.80;99.90
26081;DHT22;13991;51.174;4.438;2023-04-06T05:16:52;8.80;99.90
26081;DHT22;13991;51.174;4.438;2023-04-06T05:19:18;8.80;99.90
26081;DHT22;13991;51.174;4.438;2023-04-06T05:21:44;8.80;99.90
26081;DHT22;13991;51.174;4.438;2023-04-06T05:24:10;8.80;99.90
26081;DHT22;13991;51.174;4.438;2023-04-06T05:26:36;8.90;99.90
26081;DHT22;13991;51.174;4.438;2023-04-06T05:29:02;9.00;99.90
26081;DHT22;13991;51.174;4.438;2023-04-06T05:31:28;9.00;99.90
26081;DHT22;13991;51.174;4.438;2023-04-06T05:33:54;9.00;99.90
26081;DHT22;13991;51.174;4.438;2023-04-06T05:36:20;9.10;99.90
26081;DHT22;13991;51.174;4.438;2023-04-06T05:38:46;9.00;99.90
26081;DHT22;13991;51.174;4.438;2023-04-06T05:41:12;9.00;99.90
26081;DHT22;13991;51.174;4.438;2023-04-06T05:43:38;9.10;99.90
26081;DHT22;13991;51.174;4.438;2023-04-06T05:46:03;9.10;99.90
26081;DHT22;13991;51.174;4.438;2023-04-06T05:48:29;9.10;99.90
26081;DHT22;13991;51.174;4.438;2023-04-06T05:50:55;9.10;99.90
26081;DHT22;13991;51.174;4.438;2023-04-06T05:53:21;9.20;99.90
26081;DHT22;13991;51.174;4.438;2023-04-06T05:55:47;9.20;99.90
26081;DHT22;13991;51.174;4.438;2023-04-06T05:58:13;9.20;99.90
26081;DHT22;13991;51.174;4.438;2023-04-06T06:00:38;9.10;99.90
26081;DHT22;13991;51.174;4.438;2023-04-06T06:03:04;9.20;99.90
26081;DHT22;13991;51.174;4.438;2023-04-06T06:05:31;9.20;99.90
26081;DHT22;13991;51.174;4.438;2023-04-06T06:07:57;9.30;99.90
26081;DHT22;13991;51.174;4.438;2023-04-06T06:10:22;9.30;99.90
26081;DHT22;13991;51.174;4.438;2023-04-06T06:12:48;9.40;99.90
26081;DHT22;13991;51.174;4.438;2023-04-06T06:15:14;9.50;99.90
26081;DHT22;13991;51.174;4.438;2023-04-06T06:17:40;9.60;99.90
26081;DHT22;13991;51.174;4.438;2023-04-06T06:20:09;9.70;99.90
26081;DHT22;13991;51.174;4.438;2023-04-06T06:22:34;9.80;99.90
26081;DHT22;13991;51.174;4.438;2023-04-06T06:25:00;9.80;99.90
26081;DHT22;13991;51.174;4.438;2023-04-06T06:27:26;9.80;99.90
26081;DHT22;13991;51.174;4.438;2023-04-06T06:29:52;9.90;99.90
26081;DHT22;13991;51.174;4.438;2023-04-06T06:32:18;10.10;99.90
26081;DHT22;13991;51.174;4.438;2023-04-06T06:34:43;10.20;99.90
26081;DHT22;13991;51.174;4.438;2023-04-06T06:37:09;10.20;99.90
26081;DHT22;13991;51.174;4.438;2023-04-06T06:39:35;10.10;99.90
26081;DHT22;13991;51.174;4.438;2023-04-06T06:42:00;10.30;99.90
26081;DHT22;13991;51.174;4.438;2023-04-06T06:44:27;10.30;99.90
26081;DHT22;13991;51.174;4.438;2023-04-06T06:46:53;10.40;99.90
26081;DHT22;13991;51.174;4.438;2023-04-06T06:49:19;10.30;99.90
26081;DHT22;13991;51.174;4.438;2023-04-06T06:51:45;10.10;99.90
26081;DHT22;13991;51.174;4.438;2023-04-06T06:54:12;10.20;99.90
26081;DHT22;13991;51.174;4.438;2023-04-06T06:56:38;10.20;99.90
26081;DHT22;13991;51.174;4.438;2023-04-06T06:59:04;10.20;99.90
26081;DHT22;13991;51.174;4.438;2023-04-06T07:01:33;10.20;99.90
26081;DHT22;13991;51.174;4.438;2023-04-06T07:04:00;10.20;99.90
26081;DHT22;13991;51.174;4.438;2023-04-06T07:06:26;10.20;99.90
26081;DHT22;13991;51.174;4.438;2023-04-06T07:08:51;10.00;99.90
26081;DHT22;13991;51.174;4.438;2023-04-06T07:11:17;9.80;99.90
26081;DHT22;13991;51.174;4.438;2023-04-06T07:13:43;9.80;99.90
26081;DHT22;13991;51.174;4.438;2023-04-06T07:16:09;9.70;99.90
26081;DHT22;13991;51.174;4.438;2023-04-06T07:18:34;9.80;99.90
26081;DHT22;13991;51.174;4.438;2023-04-06T07:21:00;9.60;99.90
26081;DHT22;13991;51.174;4.438;2023-04-06T07:23:26;9.60;99.90
26081;DHT22;13991;51.174;4.438;2023-04-06T07:25:51;9.60;99.90
26081;DHT22;13991;51.174;4.438;2023-04-06T07:28:19;9.50;99.90
26081;DHT22;13991;51.174;4.438;2023-04-06T07:30:44;9.50;99.90
26081;DHT22;13991;51.174;4.438;2023-04-06T07:33:11;9.50;99.90
26081;DHT22;13991;51.174;4.438;2023-04-06T07:35:37;9.40;99.90
26081;DHT22;13991;51.174;4.438;2023-04-06T07:38:03;9.40;99.90
26081;DHT22;13991;51.174;4.438;2023-04-06T07:40:29;9.50;99.90
26081;DHT22;13991;51.174;4.438;2023-04-06T07:42:55;9.70;99.90
26081;DHT22;13991;51.174;4.438;2023-04-06T07:45:20;9.70;99.90
26081;DHT22;13991;51.174;4.438;2023-04-06T07:47:46;9.60;99.90
26081;DHT22;13991;51.174;4.438;2023-04-06T07:50:12;9.60;99.90
26081;DHT22;13991;51.174;4.438;2023-04-06T07:52:39;9.70;99.90
26081;DHT22;13991;51.174;4.438;2023-04-06T07:55:05;9.50;99.90
26081;DHT22;13991;51.174;4.438;2023-04-06T07:57:31;9.50;99.90
26081;DHT22;13991;51.174;4.438;2023-04-06T07:59:56;9.50;99.90
26081;DHT22;13991;51.174;4.438;2023-04-06T08:02:22;9.60;99.90
26081;DHT22;13991;51.174;4.438;2023-04-06T08:04:48;9.50;99.90
26081;DHT22;13991;51.174;4.438;2023-04-06T08:07:13;9.30;99.90
26081;DHT22;13991;51.174;4.438;2023-04-06T08:09:39;9.40;99.90
26081;DHT22;13991;51.174;4.438;2023-04-06T08:12:05;9.50;99.90
26081;DHT22;13991;51.174;4.438;2023-04-06T08:14:31;9.60;99.90
26081;DHT22;13991;51.174;4.438;2023-04-06T08:16:57;9.50;99.90
26081;DHT22;13991;51.174;4.438;2023-04-06T08:19:22;9.50;99.90
26081;DHT22;13991;51.174;4.438;2023-04-06T08:21:48;9.60;99.90
26081;DHT22;13991;51.174;4.438;2023-04-06T08:24:14;9.80;99.90
26081;DHT22;13991;51.174;4.438;2023-04-06T08:26:40;9.60;99.90
26081;DHT22;13991;51.174;4.438;2023-04-06T08:29:06;9.60;99.90
26081;DHT22;13991;51.174;4.438;2023-04-06T08:31:35;9.40;99.90
26081;DHT22;13991;51.174;4.438;2023-04-06T08:34:03;9.40;99.90
26081;DHT22;13991;51.174;4.438;2023-04-06T08:36:29;9.30;99.90
26081;DHT22;13991;51.174;4.438;2023-04-06T08:38:54;9.50;99.90
26081;DHT22;13991;51.174;4.438;2023-04-06T08:41:20;9.90;99.90
26081;DHT22;13991;51.174;4.438;2023-04-06T08:43:52;9.90;99.90
26081;DHT22;13991;51.174;4.438;2023-04-06T08:46:21;9.90;99.90
26081;DHT22;13991;51.174;4.438;2023-04-06T08:48:47;10.30;99.90
26081;DHT22;13991;51.174;4.438;2023-04-06T08:51:15;10.20;99.90
26081;DHT22;13991;51.174;4.438;2023-04-06T08:53:41;10.20;99.90
26081;DHT22;13991;51.174;4.438;2023-04-06T08:56:07;10.20;99.90
26081;DHT22;13991;51.174;4.438;2023-04-06T08:58:37;10.10;99.90
26081;DHT22;13991;51.174;4.438;2023-04-06T09:01:07;10.10;99.90
26081;DHT22;13991;51.174;4.438;2023-04-06T09:03:38;10.10;99.90
26081;DHT22;13991;51.174;4.438;2023-04-06T09:06:07;10.10;99.90
26081;DHT22;13991;51.174;4.438;2023-04-06T09:08:34;10.10;99.90
26081;DHT22;13991;51.174;4.438;2023-04-06T09:11:05;10.20;99.90
26081;DHT22;13991;51.174;4.438;2023-04-06T09:13:31;10.10;99.90
26081;DHT22;13991;51.174;4.438;2023-04-06T09:16:04;10.00;99.90
26081;DHT22;13991;51.174;4.438;2023-04-06T09:18:32;9.90;99.90
26081;DHT22;13991;51.174;4.438;2023-04-06T09:21:03;10.10;99.90
26081;DHT22;13991;51.174;4.438;2023-04-06T09:23:29;10.10;99.90
26081;DHT22;13991;51.174;4.438;2023-04-06T09:26:11;10.10;99.90
26081;DHT22;13991;51.174;4.438;2023-04-06T09:28:45;10.10;99.90
26081;DHT22;13991;51.174;4.438;2023-04-06T09:31:15;10.10;99.90
26081;DHT22;13991;51.174;4.438;2023-04-06T09:33:44;10.40;99.90
26081;DHT22;13991;51.174;4.438;2023-04-06T09:36:10;10.40;99.90
26081;DHT22;13991;51.174;4.438;2023-04-06T09:38:52;10.30;99.90
26081;DHT22;13991;51.174;4.438;2023-04-06T09:41:23;10.40;99.90
26081;DHT22;13991;51.174;4.438;2023-04-06T09:43:51;10.40;99.90
26081;DHT22;13991;51.174;4.438;2023-04-06T09:46:17;10.40;99.90
26081;DHT22;13991;51.174;4.438;2023-04-06T09:48:46;10.60;99.90
26081;DHT22;13991;51.174;4.438;2023-04-06T09:51:14;10.50;99.90
26081;DHT22;13991;51.174;4.438;2023-04-06T09:53:42;10.60;99.90
26081;DHT22;13991;51.174;4.438;2023-04-06T09:56:12;10.40;99.90
26081;DHT22;13991;51.174;4.438;2023-04-06T09:58:43;10.40;99.90
26081;DHT22;13991;51.174;4.438;2023-04-06T10:01:15;10.60;99.90
26081;DHT22;13991;51.174;4.438;2023-04-06T10:06:21;10.20;99.90
26081;DHT22;13991;51.174;4.438;2023-04-06T10:08:50;10.30;99.90
26081;DHT22;13991;51.174;4.438;2023-04-06T10:11:17;10.20;99.90
26081;DHT22;13991;51.174;4.438;2023-04-06T10:13:45;10.10;99.90
26081;DHT22;13991;51.174;4.438;2023-04-06T10:16:13;10.20;99.90
26081;DHT22;13991;51.174;4.438;2023-04-06T10:18:45;10.30;99.90
26081;DHT22;13991;51.174;4.438;2023-04-06T10:21:16;10.10;99.90
26081;DHT22;13991;51.174;4.438;2023-04-06T10:23:54;10.00;99.90
26081;DHT22;13991;51.174;4.438;2023-04-06T10:26:21;10.00;99.90
26081;DHT22;13991;51.174;4.438;2023-04-06T10:28:48;10.00;99.90
26081;DHT22;13991;51.174;4.438;2023-04-06T10:31:14;10.20;99.90
26081;DHT22;13991;51.174;4.438;2023-04-06T10:33:41;10.20;99.90
26081;DHT22;13991;51.174;4.438;2023-04-06T10:36:14;10.10;99.90
26081;DHT22;13991;51.174;4.438;2023-04-06T10:38:41;10.20;99.90
26081;DHT22;13991;51.174;4.438;2023-04-06T10:41:09;10.20;99.90
26081;DHT22;13991;51.174;4.438;2023-04-06T10:43:37;10.00;99.90
26081;DHT22;13991;51.174;4.438;2023-04-06T10:46:04;9.90;99.90
26081;DHT22;13991;51.174;4.438;2023-04-06T10:48:44;9.90;99.90
26081;DHT22;13991;51.174;4.438;2023-04-06T10:51:18;10.10;99.90
26081;DHT22;13991;51.174;4.438;2023-04-06T10:53:47;10.20;99.90
26081;DHT22;13991;51.174;4.438;2023-04-06T10:56:16;10.10;99.90
26081;DHT22;13991;51.174;4.438;2023-04-06T11:01:12;10.00;99.90
26081;DHT22;13991;51.174;4.438;2023-04-06T11:03:43;10.10;99.90
26081;DHT22;13991;51.174;4.438;2023-04-06T11:06:09;10.10;99.90
26081;DHT22;13991;51.174;4.438;2023-04-06T11:08:35;10.10;99.90
26081;DHT22;13991;51.174;4.438;2023-04-06T11:11:07;10.10;99.90
26081;DHT22;13991;51.174;4.438;2023-04-06T11:16:17;9.90;99.90
26081;DHT22;13991;51.174;4.438;2023-04-06T11:19:09;9.80;99.90
26081;DHT22;13991;51.174;4.438;2023-04-06T11:24:14;9.70;99.90
26081;DHT22;13991;51.174;4.438;2023-04-06T11:26:45;10.00;99.90
26081;DHT22;13991;51.174;4.438;2023-04-06T11:29:16;10.00;99.90
26081;DHT22;13991;51.174;4.438;2023-04-06T11:31:46;10.10;99.90
26081;DHT22;13991;51.174;4.438;2023-04-06T11:34:26;10.10;99.90
26081;DHT22;13991;51.174;4.438;2023-04-06T11:36:58;10.10;99.90
26081;DHT22;13991;51.174;4.438;2023-04-06T11:39:26;10.20;99.90
26081;DHT22;13991;51.174;4.438;2023-04-06T11:42:02;10.30;99.90
26081;DHT22;13991;51.174;4.438;2023-04-06T11:44:34;10.40;99.90
26081;DHT22;13991;51.174;4.438;2023-04-06T11:47:04;10.10;99.90
26081;DHT22;13991;51.174;4.438;2023-04-06T11:49:31;10.10;99.90
26081;DHT22;13991;51.174;4.438;2023-04-06T11:51:58;10.00;99.90
26081;DHT22;13991;51.174;4.438;2023-04-06T11:54:37;10.00;99.90
26081;DHT22;13991;51.174;4.438;2023-04-06T11:57:04;10.20;99.90
26081;DHT22;13991;51.174;4.438;2023-04-06T11:59:31;10.30;99.90
26081;DHT22;13991;51.174;4.438;2023-04-06T12:01:57;10.10;99.90
26081;DHT22;13991;51.174;4.438;2023-04-06T12:04:24;9.90;99.90
26081;DHT22;13991;51.174;4.438;2023-04-06T12:06:50;9.90;99.90
26081;DHT22;13991;51.174;4.438;2023-04-06T12:09:19;9.90;99.90
26081;DHT22;13991;51.174;4.438;2023-04-06T12:11:45;9.90;99.90
26081;DHT22;13991;51.174;4.438;2023-04-06T12:14:11;10.10;99.90
26081;DHT22;13991;51.174;4.438;2023-04-06T12:16:37;10.00;99.90
26081;DHT22;13991;51.174;4.438;2023-04-06T12:19:03;10.00;99.90
26081;DHT22;13991;51.174;4.438;2023-04-06T12:21:30;10.00;99.90
26081;DHT22;13991;51.174;4.438;2023-04-06T12:23:59;10.20;99.90
26081;DHT22;13991;51.174;4.438;2023-04-06T12:26:26;10.30;99.90
26081;DHT22;13991;51.174;4.438;2023-04-06T12:28:52;10.20;99.90
26081;DHT22;13991;51.174;4.438;2023-04-06T12:31:18;10.20;99.90
26081;DHT22;13991;51.174;4.438;2023-04-06T12:33:49;10.20;99.90
26081;DHT22;13991;51.174;4.438;2023-04-06T12:36:16;10.20;99.90
26081;DHT22;13991;51.174;4.438;2023-04-06T12:38:45;10.40;99.90
26081;DHT22;13991;51.174;4.438;2023-04-06T12:41:11;10.40;99.90
26081;DHT22;13991;51.174;4.438;2023-04-06T12:43:38;10.40;99.90
26081;DHT22;13991;51.174;4.438;2023-04-06T12:46:04;10.40;99.90
26081;DHT22;13991;51.174;4.438;2023-04-06T12:48:31;10.40;99.90
26081;DHT22;13991;51.174;4.438;2023-04-06T12:50:58;10.30;99.90
26081;DHT22;13991;51.174;4.438;2023-04-06T12:53:25;10.20;99.90
26081;DHT22;13991;51.174;4.438;2023-04-06T12:55:51;10.10;99.90
26081;DHT22;13991;51.174;4.438;2023-04-06T12:58:17;10.00;99.90
26081;DHT22;13991;51.174;4.438;2023-04-06T13:00:43;10.10;99.90
26081;DHT22;13991;51.174;4.438;2023-04-06T13:03:09;10.30;99.90
26081;DHT22;13991;51.174;4.438;2023-04-06T13:05:34;10.40;99.90
26081;DHT22;13991;51.174;4.438;2023-04-06T13:08:00;10.50;99.90
26081;DHT22;13991;51.174;4.438;2023-04-06T13:10:26;10.50;99.90
26081;DHT22;13991;51.174;4.438;2023-04-06T13:12:52;10.60;99.90
26081;DHT22;13991;51.174;4.438;2023-04-06T13:15:18;10.50;99.90
26081;DHT22;13991;51.174;4.438;2023-04-06T13:17:44;10.40;99.90
26081;DHT22;13991;51.174;4.438;2023-04-06T13:20:09;10.20;99.90
26081;DHT22;13991;51.174;4.438;2023-04-06T13:22:35;10.20;99.90
26081;DHT22;13991;51.174;4.438;2023-04-06T13:28:23;10.20;99.90
26081;DHT22;13991;51.174;4.438;2023-04-06T13:30:48;10.00;99.90
26081;DHT22;13991;51.174;4.438;2023-04-06T13:33:15;10.00;99.90
26081;DHT22;13991;51.174;4.438;2023-04-06T13:35:44;10.00;99.90
26081;DHT22;13991;51.174;4.438;2023-04-06T13:38:11;10.00;99.90
26081;DHT22;13991;51.174;4.438;2023-04-06T13:40:39;10.30;99.90
26081;DHT22;13991;51.174;4.438;2023-04-06T13:43:05;10.40;99.90
26081;DHT22;13991;51.174;4.438;2023-04-06T13:45:31;10.40;99.90
26081;DHT22;13991;51.174;4.438;2023-04-06T13:47:57;10.30;99.90
26081;DHT22;13991;51.174;4.438;2023-04-06T13:50:25;10.20;99.90
26081;DHT22;13991;51.174;4.438;2023-04-06T13:52:51;10.20;99.90
26081;DHT22;13991;51.174;4.438;2023-04-06T13:55:17;10.20;99.90
26081;DHT22;13991;51.174;4.438;2023-04-06T13:57:42;10.30;99.90
26081;DHT22;13991;51.174;4.438;2023-04-06T14:00:08;10.60;99.90
26081;DHT22;13991;51.174;4.438;2023-04-06T14:02:36;10.80;99.90
26081;DHT22;13991;51.174;4.438;2023-04-06T14:05:01;10.70;99.90
26081;DHT22;13991;51.174;4.438;2023-04-06T14:07:28;10.70;99.90
26081;DHT22;13991;51.174;4.438;2023-04-06T14:09:54;10.60;99.90
26081;DHT22;13991;51.174;4.438;2023-04-06T14:12:20;10.50;99.90
26081;DHT22;13991;51.174;4.438;2023-04-06T14:14:46;10.60;99.90
26081;DHT22;13991;51.174;4.438;2023-04-06T14:17:11;10.40;99.90
26081;DHT22;13991;51.174;4.438;2023-04-06T14:19:37;10.60;99.90
26081;DHT22;13991;51.174;4.438;2023-04-06T14:22:03;10.50;99.90
26081;DHT22;13991;51.174;4.438;2023-04-06T14:24:30;10.50;99.90
26081;DHT22;13991;51.174;4.438;2023-04-06T14:26:56;10.70;99.90
26081;DHT22;13991;51.174;4.438;2023-04-06T14:29:22;10.40;99.90
26081;DHT22;13991;51.174;4.438;2023-04-06T14:31:48;10.40;99.90
26081;DHT22;13991;51.174;4.438;2023-04-06T14:34:14;10.60;99.90
26081;DHT22;13991;51.174;4.438;2023-04-06T14:36:40;10.50;99.90
26081;DHT22;13991;51.174;4.438;2023-04-06T14:39:06;10.50;99.90
26081;DHT22;13991;51.174;4.438;2023-04-06T14:41:33;10.50;99.90
26081;DHT22;13991;51.174;4.438;2023-04-06T14:43:59;10.60;99.90
26081;DHT22;13991;51.174;4.438;2023-04-06T14:46:25;10.60;99.90
26081;DHT22;13991;51.174;4.438;2023-04-06T14:48:54;10.50;99.90
26081;DHT22;13991;51.174;4.438;2023-04-06T14:51:20;10.40;99.90
26081;DHT22;13991;51.174;4.438;2023-04-06T14:53:46;10.40;99.90
26081;DHT22;13991;51.174;4.438;2023-04-06T14:56:11;10.50;99.90
26081;DHT22;13991;51.174;4.438;2023-04-06T14:58:37;10.60;99.90
26081;DHT22;13991;51.174;4.438;2023-04-06T15:01:03;10.90;99.90
26081;DHT22;13991;51.174;4.438;2023-04-06T15:03:29;11.10;99.90
26081;DHT22;13991;51.174;4.438;2023-04-06T15:05:56;11.20;99.90
26081;DHT22;13991;51.174;4.438;2023-04-06T15:08:22;11.10;99.90
26081;DHT22;13991;51.174;4.438;2023-04-06T15:10:49;11.00;99.90
26081;DHT22;13991;51.174;4.438;2023-04-06T15:13:16;10.80;99.90
26081;DHT22;13991;51.174;4.438;2023-04-06T15:15:42;11.00;99.90
26081;DHT22;13991;51.174;4.438;2023-04-06T15:18:08;11.10;99.90
26081;DHT22;13991;51.174;4.438;2023-04-06T15:20:34;10.90;99.90
26081;DHT22;13991;51.174;4.438;2023-04-06T15:23:02;10.60;99.90
26081;DHT22;13991;51.174;4.438;2023-04-06T15:25:28;10.50;99.90
26081;DHT22;13991;51.174;4.438;2023-04-06T15:27:55;10.60;99.90
26081;DHT22;13991;51.174;4.438;2023-04-06T15:30:20;10.70;99.90
26081;DHT22;13991;51.174;4.438;2023-04-06T15:32:55;10.80;99.90
26081;DHT22;13991;51.174;4.438;2023-04-06T15:35:21;10.90;99.90
26081;DHT22;13991;51.174;4.438;2023-04-06T15:37:47;11.10;99.90
26081;DHT22;13991;51.174;4.438;2023-04-06T15:40:13;11.20;99.90
26081;DHT22;13991;51.174;4.438;2023-04-06T15:42:41;11.20;99.90
26081;DHT22;13991;51.174;4.438;2023-04-06T15:45:11;11.10;99.90
26081;DHT22;13991;51.174;4.438;2023-04-06T15:47:38;11.20;99.90
26081;DHT22;13991;51.174;4.438;2023-04-06T15:50:04;11.30;99.90